sensor_id;sensor_type;location;lat;lon;timestamp;P1;durP1;ratioP1;P2;durP2;ratioP2
31182;SDS011;17813;0.000;0.000;2023-07-20T00:00:49;7.73;;;3.43;;
31182;SDS011;17813;0.000;0.000;2023-07-20T00:03:24;8.33;;;3.60;;
31182;SDS011;17813;0.000;0.000;2023-07-20T00:05:53;6.30;;;3.53;;
31182;SDS011;17813;0.000;0.000;2023-07-20T00:08:20;5.80;;;3.50;;
31182;SDS011;17813;0.000;0.000;2023-07-20T00:10:53;6.13;;;3.57;;
31182;SDS011;17813;0.000;0.000;2023-07-20T00:13:21;6.20;;;3.30;;
31182;SDS011;17813;0.000;0.000;2023-07-20T00:15:55;6.83;;;3.50;;
31182;SDS011;17813;0.000;0.000;2023-07-20T00:18:22;7.07;;;3.63;;
31182;SDS011;17813;0.000;0.000;2023-07-20T00:20:50;7.37;;;3.20;;
31182;SDS011;17813;0.000;0.000;2023-07-20T00:23:24;5.87;;;3.90;;
31182;SDS011;17813;0.000;0.000;2023-07-20T00:25:51;6.27;;;3.90;;
31182;SDS011;17813;0.000;0.000;2023-07-20T00:28:19;6.17;;;4.00;;
31182;SDS011;17813;0.000;0.000;2023-07-20T00:30:50;5.90;;;3.93;;
31182;SDS011;17813;0.000;0.000;2023-07-20T00:33:21;4.93;;;3.80;;
31182;SDS011;17813;0.000;0.000;2023-07-20T00:35:48;4.87;;;3.47;;
31182;SDS011;17813;0.000;0.000;2023-07-20T00:38:18;5.90;;;3.83;;
31182;SDS011;17813;0.000;0.000;2023-07-20T00:40:48;7.17;;;4.00;;
31182;SDS011;17813;0.000;0.000;2023-07-20T00:43:16;7.23;;;3.90;;
31182;SDS011;17813;0.000;0.000;2023-07-20T00:45:48;6.27;;;3.77;;
31182;SDS011;17813;0.000;0.000;2023-07-20T00:48:16;4.33;;;3.40;;
31182;SDS011;17813;0.000;0.000;2023-07-20T00:50:45;5.20;;;3.47;;
31182;SDS011;17813;0.000;0.000;2023-07-20T00:53:17;6.57;;;3.53;;
31182;SDS011;17813;0.000;0.000;2023-07-20T00:55:49;5.13;;;3.60;;
31182;SDS011;17813;0.000;0.000;2023-07-20T00:58:17;9.97;;;4.00;;
31182;SDS011;17813;0.000;0.000;2023-07-20T01:00:44;4.13;;;3.33;;
31182;SDS011;17813;0.000;0.000;2023-07-20T01:03:13;9.00;;;3.70;;
31182;SDS011;17813;0.000;0.000;2023-07-20T01:05:47;7.30;;;3.77;;
31182;SDS011;17813;0.000;0.000;2023-07-20T01:08:51;5.90;;;3.70;;
31182;SDS011;17813;0.000;0.000;2023-07-20T01:11:43;6.00;;;3.30;;
31182;SDS011;17813;0.000;0.000;2023-07-20T01:14:20;5.97;;;3.53;;
31182;SDS011;17813;0.000;0.000;2023-07-20T01:16:53;8.07;;;3.70;;
31182;SDS011;17813;0.000;0.000;2023-07-20T01:19:20;7.43;;;3.77;;
31182;SDS011;17813;0.000;0.000;2023-07-20T01:34:19;4.10;;;3.23;;
31182;SDS011;17813;0.000;0.000;2023-07-20T01:37:08;7.63;;;3.60;;
31182;SDS011;17813;0.000;0.000;2023-07-20T01:39:58;5.10;;;3.70;;
31182;SDS011;17813;0.000;0.000;2023-07-20T01:42:31;9.90;;;3.70;;
31182;SDS011;17813;0.000;0.000;2023-07-20T01:45:00;6.43;;;4.03;;
31182;SDS011;17813;0.000;0.000;2023-07-20T01:47:32;6.53;;;3.90;;
31182;SDS011;17813;0.000;0.000;2023-07-20T01:50:01;11.67;;;4.00;;
31182;SDS011;17813;0.000;0.000;2023-07-20T01:52:30;6.63;;;4.20;;
31182;SDS011;17813;0.000;0.000;2023-07-20T01:55:00;6.10;;;4.13;;
31182;SDS011;17813;0.000;0.000;2023-07-20T01:57:27;6.27;;;3.67;;
31182;SDS011;17813;0.000;0.000;2023-07-20T01:59:53;16.13;;;3.63;;
31182;SDS011;17813;0.000;0.000;2023-07-20T02:02:26;16.33;;;4.80;;
31182;SDS011;17813;0.000;0.000;2023-07-20T02:04:54;11.20;;;4.73;;
31182;SDS011;17813;0.000;0.000;2023-07-20T02:07:21;20.20;;;4.63;;
31182;SDS011;17813;0.000;0.000;2023-07-20T02:09:48;25.27;;;4.40;;
31182;SDS011;17813;0.000;0.000;2023-07-20T02:12:15;22.73;;;3.97;;
31182;SDS011;17813;0.000;0.000;2023-07-20T02:14:41;12.57;;;4.33;;
31182;SDS011;17813;0.000;0.000;2023-07-20T02:17:10;6.47;;;4.00;;
31182;SDS011;17813;0.000;0.000;2023-07-20T02:19:36;14.00;;;4.30;;
31182;SDS011;17813;0.000;0.000;2023-07-20T02:22:05;11.57;;;4.10;;
31182;SDS011;17813;0.000;0.000;2023-07-20T02:24:33;15.30;;;3.90;;
31182;SDS011;17813;0.000;0.000;2023-07-20T02:27:00;8.87;;;3.37;;
31182;SDS011;17813;0.000;0.000;2023-07-20T02:29:27;4.93;;;2.90;;
31182;SDS011;17813;0.000;0.000;2023-07-20T02:31:54;34.30;;;3.87;;
31182;SDS011;17813;0.000;0.000;2023-07-20T02:34:21;30.13;;;3.63;;
31182;SDS011;17813;0.000;0.000;2023-07-20T02:36:48;3.77;;;3.10;;
31182;SDS011;17813;0.000;0.000;2023-07-20T02:39:15;4.17;;;3.30;;
31182;SDS011;17813;0.000;0.000;2023-07-20T02:41:42;5.13;;;3.50;;
31182;SDS011;17813;0.000;0.000;2023-07-20T02:44:09;4.77;;;3.50;;
31182;SDS011;17813;0.000;0.000;2023-07-20T02:46:36;4.50;;;2.87;;
31182;SDS011;17813;0.000;0.000;2023-07-20T02:49:03;4.50;;;3.20;;
31182;SDS011;17813;0.000;0.000;2023-07-20T02:51:32;4.30;;;3.37;;
31182;SDS011;17813;0.000;0.000;2023-07-20T02:54:02;4.30;;;3.57;;
31182;SDS011;17813;0.000;0.000;2023-07-20T02:56:30;3.83;;;3.07;;
31182;SDS011;17813;0.000;0.000;2023-07-20T02:59:00;4.33;;;3.50;;
31182;SDS011;17813;0.000;0.000;2023-07-20T03:01:28;5.57;;;3.90;;
31182;SDS011;17813;0.000;0.000;2023-07-20T03:03:56;4.83;;;3.47;;
31182;SDS011;17813;0.000;0.000;2023-07-20T03:06:23;5.43;;;3.90;;
31182;SDS011;17813;0.000;0.000;2023-07-20T03:09:06;6.13;;;4.00;;
31182;SDS011;17813;0.000;0.000;2023-07-20T03:11:34;5.77;;;3.83;;
31182;SDS011;17813;0.000;0.000;2023-07-20T03:14:01;5.57;;;4.10;;
31182;SDS011;17813;0.000;0.000;2023-07-20T03:16:28;7.17;;;4.57;;
31182;SDS011;17813;0.000;0.000;2023-07-20T03:18:59;4.00;;;3.60;;
31182;SDS011;17813;0.000;0.000;2023-07-20T03:21:30;5.90;;;3.90;;
31182;SDS011;17813;0.000;0.000;2023-07-20T03:23:57;5.93;;;3.70;;
31182;SDS011;17813;0.000;0.000;2023-07-20T03:26:24;7.67;;;3.93;;
31182;SDS011;17813;0.000;0.000;2023-07-20T03:28:52;3.87;;;3.57;;
31182;SDS011;17813;0.000;0.000;2023-07-20T03:31:19;6.60;;;3.83;;
31182;SDS011;17813;0.000;0.000;2023-07-20T03:33:46;5.23;;;3.57;;
31182;SDS011;17813;0.000;0.000;2023-07-20T03:36:13;5.03;;;3.30;;
31182;SDS011;17813;0.000;0.000;2023-07-20T03:38:43;8.43;;;3.80;;
31182;SDS011;17813;0.000;0.000;2023-07-20T03:41:10;5.57;;;4.20;;
31182;SDS011;17813;0.000;0.000;2023-07-20T03:43:38;4.47;;;3.83;;
31182;SDS011;17813;0.000;0.000;2023-07-20T03:46:07;4.53;;;3.90;;
31182;SDS011;17813;0.000;0.000;2023-07-20T03:48:34;6.53;;;3.83;;
31182;SDS011;17813;0.000;0.000;2023-07-20T03:51:04;4.73;;;3.47;;
31182;SDS011;17813;0.000;0.000;2023-07-20T03:53:32;3.97;;;3.13;;
31182;SDS011;17813;0.000;0.000;2023-07-20T03:55:59;6.67;;;4.10;;
31182;SDS011;17813;0.000;0.000;2023-07-20T03:58:26;8.20;;;4.30;;
31182;SDS011;17813;0.000;0.000;2023-07-20T04:00:53;6.10;;;3.90;;
31182;SDS011;17813;0.000;0.000;2023-07-20T04:03:20;8.57;;;3.57;;
31182;SDS011;17813;0.000;0.000;2023-07-20T04:05:59;7.40;;;4.33;;
31182;SDS011;17813;0.000;0.000;2023-07-20T04:08:26;6.53;;;4.00;;
31182;SDS011;17813;0.000;0.000;2023-07-20T04:10:53;9.20;;;4.23;;
31182;SDS011;17813;0.000;0.000;2023-07-20T04:13:19;5.60;;;4.07;;
31182;SDS011;17813;0.000;0.000;2023-07-20T04:15:47;8.17;;;4.47;;
31182;SDS011;17813;0.000;0.000;2023-07-20T04:18:15;4.10;;;3.70;;
31182;SDS011;17813;0.000;0.000;2023-07-20T04:20:42;8.73;;;4.30;;
31182;SDS011;17813;0.000;0.000;2023-07-20T04:23:09;4.37;;;3.97;;
31182;SDS011;17813;0.000;0.000;2023-07-20T04:25:38;6.63;;;4.00;;
31182;SDS011;17813;0.000;0.000;2023-07-20T04:28:09;5.67;;;4.20;;
31182;SDS011;17813;0.000;0.000;2023-07-20T04:30:38;5.83;;;4.27;;
31182;SDS011;17813;0.000;0.000;2023-07-20T04:33:08;6.93;;;4.20;;
31182;SDS011;17813;0.000;0.000;2023-07-20T04:35:46;7.33;;;4.03;;
31182;SDS011;17813;0.000;0.000;2023-07-20T04:38:21;6.43;;;4.03;;
31182;SDS011;17813;0.000;0.000;2023-07-20T04:40:50;5.70;;;4.10;;
31182;SDS011;17813;0.000;0.000;2023-07-20T04:43:18;4.70;;;4.07;;
31182;SDS011;17813;0.000;0.000;2023-07-20T04:45:48;7.60;;;4.63;;
31182;SDS011;17813;0.000;0.000;2023-07-20T04:48:22;5.93;;;3.80;;
31182;SDS011;17813;0.000;0.000;2023-07-20T04:50:57;7.20;;;3.83;;
31182;SDS011;17813;0.000;0.000;2023-07-20T04:53:27;4.83;;;4.20;;
31182;SDS011;17813;0.000;0.000;2023-07-20T04:55:54;6.57;;;3.90;;
31182;SDS011;17813;0.000;0.000;2023-07-20T04:58:28;5.60;;;4.23;;
31182;SDS011;17813;0.000;0.000;2023-07-20T05:00:59;7.17;;;4.40;;
31182;SDS011;17813;0.000;0.000;2023-07-20T05:03:26;5.70;;;4.33;;
31182;SDS011;17813;0.000;0.000;2023-07-20T05:05:53;6.47;;;4.20;;
31182;SDS011;17813;0.000;0.000;2023-07-20T05:08:23;6.83;;;4.00;;
31182;SDS011;17813;0.000;0.000;2023-07-20T05:10:50;8.53;;;4.07;;
31182;SDS011;17813;0.000;0.000;2023-07-20T05:13:20;7.20;;;3.70;;
31182;SDS011;17813;0.000;0.000;2023-07-20T05:15:53;7.43;;;4.63;;
31182;SDS011;17813;0.000;0.000;2023-07-20T05:18:20;10.10;;;3.77;;
31182;SDS011;17813;0.000;0.000;2023-07-20T05:20:48;9.27;;;4.00;;
31182;SDS011;17813;0.000;0.000;2023-07-20T05:23:16;12.60;;;4.10;;
31182;SDS011;17813;0.000;0.000;2023-07-20T05:25:45;6.93;;;3.70;;
31182;SDS011;17813;0.000;0.000;2023-07-20T05:28:13;9.97;;;4.10;;
31182;SDS011;17813;0.000;0.000;2023-07-20T05:30:41;11.47;;;4.90;;
31182;SDS011;17813;0.000;0.000;2023-07-20T05:33:09;7.47;;;3.90;;
31182;SDS011;17813;0.000;0.000;2023-07-20T05:35:37;14.07;;;4.53;;
31182;SDS011;17813;0.000;0.000;2023-07-20T05:38:06;8.07;;;4.10;;
31182;SDS011;17813;0.000;0.000;2023-07-20T05:40:43;7.70;;;4.23;;
31182;SDS011;17813;0.000;0.000;2023-07-20T05:43:12;7.67;;;4.17;;
31182;SDS011;17813;0.000;0.000;2023-07-20T05:45:43;8.83;;;4.10;;
31182;SDS011;17813;0.000;0.000;2023-07-20T05:48:12;9.93;;;4.20;;
31182;SDS011;17813;0.000;0.000;2023-07-20T05:50:42;8.17;;;4.30;;
31182;SDS011;17813;0.000;0.000;2023-07-20T05:53:09;7.10;;;4.43;;
31182;SDS011;17813;0.000;0.000;2023-07-20T05:55:38;7.07;;;4.13;;
31182;SDS011;17813;0.000;0.000;2023-07-20T05:58:09;6.87;;;4.63;;
31182;SDS011;17813;0.000;0.000;2023-07-20T06:00:35;10.23;;;4.73;;
31182;SDS011;17813;0.000;0.000;2023-07-20T06:03:05;7.90;;;4.33;;
31182;SDS011;17813;0.000;0.000;2023-07-20T06:05:32;5.07;;;4.27;;
31182;SDS011;17813;0.000;0.000;2023-07-20T06:07:59;7.30;;;4.50;;
31182;SDS011;17813;0.000;0.000;2023-07-20T06:10:27;6.83;;;4.60;;
31182;SDS011;17813;0.000;0.000;2023-07-20T06:12:53;5.53;;;4.17;;
31182;SDS011;17813;0.000;0.000;2023-07-20T06:15:31;4.30;;;3.90;;
31182;SDS011;17813;0.000;0.000;2023-07-20T06:18:02;6.03;;;3.93;;
31182;SDS011;17813;0.000;0.000;2023-07-20T06:20:29;5.03;;;3.70;;
31182;SDS011;17813;0.000;0.000;2023-07-20T06:23:01;4.70;;;4.00;;
31182;SDS011;17813;0.000;0.000;2023-07-20T06:25:28;5.93;;;3.97;;
31182;SDS011;17813;0.000;0.000;2023-07-20T06:27:55;5.07;;;3.87;;
31182;SDS011;17813;0.000;0.000;2023-07-20T06:30:30;5.93;;;3.90;;
31182;SDS011;17813;0.000;0.000;2023-07-20T06:33:01;6.30;;;3.97;;
31182;SDS011;17813;0.000;0.000;2023-07-20T06:35:28;5.80;;;3.90;;
31182;SDS011;17813;0.000;0.000;2023-07-20T06:37:58;4.67;;;3.87;;
31182;SDS011;17813;0.000;0.000;2023-07-20T06:40:26;7.27;;;3.83;;
31182;SDS011;17813;0.000;0.000;2023-07-20T06:42:53;5.57;;;4.00;;
31182;SDS011;17813;0.000;0.000;2023-07-20T06:45:20;7.57;;;3.87;;
31182;SDS011;17813;0.000;0.000;2023-07-20T06:47:47;4.23;;;3.83;;
31182;SDS011;17813;0.000;0.000;2023-07-20T06:50:16;4.60;;;3.87;;
31182;SDS011;17813;0.000;0.000;2023-07-20T06:52:43;4.03;;;3.63;;
31182;SDS011;17813;0.000;0.000;2023-07-20T06:55:21;7.03;;;3.70;;
31182;SDS011;17813;0.000;0.000;2023-07-20T06:57:50;7.97;;;4.07;;
31182;SDS011;17813;0.000;0.000;2023-07-20T07:00:18;4.97;;;3.73;;
31182;SDS011;17813;0.000;0.000;2023-07-20T07:02:45;4.10;;;3.40;;
31182;SDS011;17813;0.000;0.000;2023-07-20T07:05:13;4.53;;;3.63;;
31182;SDS011;17813;0.000;0.000;2023-07-20T07:07:42;4.43;;;3.90;;
31182;SDS011;17813;0.000;0.000;2023-07-20T07:10:12;3.65;;;3.35;;
31182;SDS011;17813;0.000;0.000;2023-07-20T07:12:39;3.90;;;3.50;;
31182;SDS011;17813;0.000;0.000;2023-07-20T07:15:07;3.85;;;3.42;;
31182;SDS011;17813;0.000;0.000;2023-07-20T07:17:38;3.55;;;3.20;;
31182;SDS011;17813;0.000;0.000;2023-07-20T07:20:05;4.80;;;2.90;;
31182;SDS011;17813;0.000;0.000;2023-07-20T07:22:33;3.78;;;2.70;;
31182;SDS011;17813;0.000;0.000;2023-07-20T07:25:00;2.75;;;2.33;;
31182;SDS011;17813;0.000;0.000;2023-07-20T07:30:21;3.22;;;2.65;;
31182;SDS011;17813;0.000;0.000;2023-07-20T07:32:49;3.10;;;2.47;;
31182;SDS011;17813;0.000;0.000;2023-07-20T07:35:15;3.15;;;2.50;;
31182;SDS011;17813;0.000;0.000;2023-07-20T07:37:44;3.03;;;2.50;;
31182;SDS011;17813;0.000;0.000;2023-07-20T07:40:13;2.55;;;2.20;;
31182;SDS011;17813;0.000;0.000;2023-07-20T07:42:40;3.95;;;2.17;;
31182;SDS011;17813;0.000;0.000;2023-07-20T07:45:07;2.85;;;2.15;;
31182;SDS011;17813;0.000;0.000;2023-07-20T07:47:35;2.50;;;2.00;;
31182;SDS011;17813;0.000;0.000;2023-07-20T07:50:03;4.47;;;2.17;;
31182;SDS011;17813;0.000;0.000;2023-07-20T07:52:30;2.35;;;2.15;;
31182;SDS011;17813;0.000;0.000;2023-07-20T07:54:57;2.08;;;1.85;;
31182;SDS011;17813;0.000;0.000;2023-07-20T07:57:25;3.03;;;1.90;;
31182;SDS011;17813;0.000;0.000;2023-07-20T07:59:52;2.42;;;1.80;;
31182;SDS011;17813;0.000;0.000;2023-07-20T08:02:19;2.70;;;1.90;;
31182;SDS011;17813;0.000;0.000;2023-07-20T08:04:49;2.08;;;1.67;;
31182;SDS011;17813;0.000;0.000;2023-07-20T08:07:18;2.65;;;1.75;;
31182;SDS011;17813;0.000;0.000;2023-07-20T08:09:47;1.77;;;1.67;;
31182;SDS011;17813;0.000;0.000;2023-07-20T08:12:14;2.03;;;1.80;;
31182;SDS011;17813;0.000;0.000;2023-07-20T08:14:44;2.38;;;2.00;;
31182;SDS011;17813;0.000;0.000;2023-07-20T08:17:13;1.95;;;1.60;;
31182;SDS011;17813;0.000;0.000;2023-07-20T08:19:41;2.70;;;1.90;;
31182;SDS011;17813;0.000;0.000;2023-07-20T08:22:11;2.33;;;1.83;;
31182;SDS011;17813;0.000;0.000;2023-07-20T08:24:39;1.73;;;1.60;;
31182;SDS011;17813;0.000;0.000;2023-07-20T08:33:29;2.78;;;1.75;;
31182;SDS011;17813;0.000;0.000;2023-07-20T08:36:04;2.47;;;1.65;;
31182;SDS011;17813;0.000;0.000;2023-07-20T08:38:31;2.38;;;2.08;;
31182;SDS011;17813;0.000;0.000;2023-07-20T08:41:01;3.05;;;1.90;;
31182;SDS011;17813;0.000;0.000;2023-07-20T08:43:28;2.20;;;2.00;;
31182;SDS011;17813;0.000;0.000;2023-07-20T08:45:58;2.25;;;2.03;;
31182;SDS011;17813;0.000;0.000;2023-07-20T08:48:30;1.83;;;1.63;;
31182;SDS011;17813;0.000;0.000;2023-07-20T08:50:57;2.25;;;1.65;;
31182;SDS011;17813;0.000;0.000;2023-07-20T08:53:27;2.40;;;2.20;;
31182;SDS011;17813;0.000;0.000;2023-07-20T08:55:57;2.03;;;1.77;;
31182;SDS011;17813;0.000;0.000;2023-07-20T08:58:28;1.85;;;1.70;;
31182;SDS011;17813;0.000;0.000;2023-07-20T09:00:56;2.22;;;1.60;;
31182;SDS011;17813;0.000;0.000;2023-07-20T09:03:26;1.70;;;1.60;;
31182;SDS011;17813;0.000;0.000;2023-07-20T09:05:57;1.50;;;1.40;;
31182;SDS011;17813;0.000;0.000;2023-07-20T09:08:24;1.98;;;1.73;;
31182;SDS011;17813;0.000;0.000;2023-07-20T09:10:55;1.98;;;1.55;;
31182;SDS011;17813;0.000;0.000;2023-07-20T09:13:22;3.22;;;1.75;;
31182;SDS011;17813;0.000;0.000;2023-07-20T09:15:55;2.35;;;1.63;;
31182;SDS011;17813;0.000;0.000;2023-07-20T09:18:28;1.40;;;1.30;;
31182;SDS011;17813;0.000;0.000;2023-07-20T09:21:01;1.92;;;1.60;;
31182;SDS011;17813;0.000;0.000;2023-07-20T09:23:33;1.75;;;1.65;;
31182;SDS011;17813;0.000;0.000;2023-07-20T09:26:10;1.55;;;1.40;;
31182;SDS011;17813;0.000;0.000;2023-07-20T09:28:41;1.42;;;1.33;;
31182;SDS011;17813;0.000;0.000;2023-07-20T09:31:16;1.60;;;1.40;;
31182;SDS011;17813;0.000;0.000;2023-07-20T09:33:45;2.00;;;1.60;;
31182;SDS011;17813;0.000;0.000;2023-07-20T09:36:14;1.95;;;1.70;;
31182;SDS011;17813;0.000;0.000;2023-07-20T09:38:42;2.15;;;1.45;;
31182;SDS011;17813;0.000;0.000;2023-07-20T09:41:13;1.60;;;1.50;;
31182;SDS011;17813;0.000;0.000;2023-07-20T09:43:49;1.90;;;1.60;;
31182;SDS011;17813;0.000;0.000;2023-07-20T09:46:45;1.85;;;1.38;;
31182;SDS011;17813;0.000;0.000;2023-07-20T09:49:13;1.58;;;1.48;;
31182;SDS011;17813;0.000;0.000;2023-07-20T09:51:45;1.58;;;1.48;;
31182;SDS011;17813;0.000;0.000;2023-07-20T09:54:13;2.45;;;1.48;;
31182;SDS011;17813;0.000;0.000;2023-07-20T09:56:42;1.48;;;1.38;;
31182;SDS011;17813;0.000;0.000;2023-07-20T09:59:10;1.73;;;1.30;;
31182;SDS011;17813;0.000;0.000;2023-07-20T10:01:37;1.67;;;1.50;;
31182;SDS011;17813;0.000;0.000;2023-07-20T10:04:10;1.85;;;1.52;;
31182;SDS011;17813;0.000;0.000;2023-07-20T10:06:41;2.20;;;1.58;;
31182;SDS011;17813;0.000;0.000;2023-07-20T10:09:12;1.60;;;1.50;;
31182;SDS011;17813;0.000;0.000;2023-07-20T10:11:45;1.58;;;1.45;;
31182;SDS011;17813;0.000;0.000;2023-07-20T10:14:16;2.05;;;1.50;;
31182;SDS011;17813;0.000;0.000;2023-07-20T10:16:49;3.45;;;1.58;;
31182;SDS011;17813;0.000;0.000;2023-07-20T10:19:28;2.83;;;1.55;;
31182;SDS011;17813;0.000;0.000;2023-07-20T10:22:31;1.65;;;1.55;;
31182;SDS011;17813;0.000;0.000;2023-07-20T10:25:01;1.65;;;1.55;;
31182;SDS011;17813;0.000;0.000;2023-07-20T10:27:30;1.88;;;1.67;;
31182;SDS011;17813;0.000;0.000;2023-07-20T10:29:57;1.63;;;1.52;;
31182;SDS011;17813;0.000;0.000;2023-07-20T10:32:27;1.73;;;1.60;;
31182;SDS011;17813;0.000;0.000;2023-07-20T10:34:56;2.55;;;1.40;;
31182;SDS011;17813;0.000;0.000;2023-07-20T10:40:37;1.60;;;1.50;;
31182;SDS011;17813;0.000;0.000;2023-07-20T10:43:05;1.55;;;1.45;;
31182;SDS011;17813;0.000;0.000;2023-07-20T10:45:36;1.50;;;1.40;;
31182;SDS011;17813;0.000;0.000;2023-07-20T10:48:27;1.58;;;1.48;;
31182;SDS011;17813;0.000;0.000;2023-07-20T10:53:49;1.55;;;1.45;;
31182;SDS011;17813;0.000;0.000;2023-07-20T10:56:19;1.95;;;1.80;;
31182;SDS011;17813;0.000;0.000;2023-07-20T10:58:54;3.85;;;1.90;;
31182;SDS011;17813;0.000;0.000;2023-07-20T11:01:29;5.50;;;2.03;;
31182;SDS011;17813;0.000;0.000;2023-07-20T11:03:57;4.35;;;2.17;;
31182;SDS011;17813;0.000;0.000;2023-07-20T11:11:41;2.70;;;2.50;;
31182;SDS011;17813;0.000;0.000;2023-07-20T11:14:30;2.70;;;2.50;;
31182;SDS011;17813;0.000;0.000;2023-07-20T11:17:10;3.20;;;2.60;;
31182;SDS011;17813;0.000;0.000;2023-07-20T11:19:47;3.20;;;2.90;;
31182;SDS011;17813;0.000;0.000;2023-07-20T11:22:17;3.65;;;3.00;;
31182;SDS011;17813;0.000;0.000;2023-07-20T11:24:46;3.30;;;2.80;;
31182;SDS011;17813;0.000;0.000;2023-07-20T11:27:15;3.20;;;2.90;;
31182;SDS011;17813;0.000;0.000;2023-07-20T11:29:45;5.57;;;3.00;;
31182;SDS011;17813;0.000;0.000;2023-07-20T11:32:11;3.13;;;2.90;;
31182;SDS011;17813;0.000;0.000;2023-07-20T11:34:47;3.33;;;2.70;;
31182;SDS011;17813;0.000;0.000;2023-07-20T11:37:16;2.65;;;2.45;;
31182;SDS011;17813;0.000;0.000;2023-07-20T11:39:44;3.05;;;2.67;;
31182;SDS011;17813;0.000;0.000;2023-07-20T11:42:14;2.53;;;2.33;;
31182;SDS011;17813;0.000;0.000;2023-07-20T11:44:41;2.50;;;2.30;;
31182;SDS011;17813;0.000;0.000;2023-07-20T11:47:12;2.42;;;2.22;;
31182;SDS011;17813;0.000;0.000;2023-07-20T11:49:40;2.30;;;2.10;;
31182;SDS011;17813;0.000;0.000;2023-07-20T11:52:11;2.22;;;2.03;;
31182;SDS011;17813;0.000;0.000;2023-07-20T11:54:45;1.80;;;1.70;;
31182;SDS011;17813;0.000;0.000;2023-07-20T11:57:20;2.20;;;2.00;;
31182;SDS011;17813;0.000;0.000;2023-07-20T11:59:57;1.67;;;1.58;;
31182;SDS011;17813;0.000;0.000;2023-07-20T12:02:37;1.55;;;1.45;;
31182;SDS011;17813;0.000;0.000;2023-07-20T12:05:07;1.80;;;1.70;;
31182;SDS011;17813;0.000;0.000;2023-07-20T12:07:35;2.10;;;1.30;;
31182;SDS011;17813;0.000;0.000;2023-07-20T12:10:09;1.30;;;1.20;;
31182;SDS011;17813;0.000;0.000;2023-07-20T12:12:37;1.00;;;1.00;;
31182;SDS011;17813;0.000;0.000;2023-07-20T12:15:16;0.65;;;0.65;;
31182;SDS011;17813;0.000;0.000;2023-07-20T12:17:52;0.90;;;0.90;;
31182;SDS011;17813;0.000;0.000;2023-07-20T12:20:27;1.00;;;1.00;;
31182;SDS011;17813;0.000;0.000;2023-07-20T12:22:59;0.82;;;0.82;;
31182;SDS011;17813;0.000;0.000;2023-07-20T12:25:32;0.70;;;0.70;;
31182;SDS011;17813;0.000;0.000;2023-07-20T12:28:10;0.93;;;0.90;;
31182;SDS011;17813;0.000;0.000;2023-07-20T12:30:43;0.93;;;0.93;;
31182;SDS011;17813;0.000;0.000;2023-07-20T12:33:10;0.65;;;0.65;;
31182;SDS011;17813;0.000;0.000;2023-07-20T12:35:45;0.60;;;0.60;;
31182;SDS011;17813;0.000;0.000;2023-07-20T12:38:13;3.33;;;0.60;;
31182;SDS011;17813;0.000;0.000;2023-07-20T12:40:47;1.65;;;0.80;;
31182;SDS011;17813;0.000;0.000;2023-07-20T12:43:15;0.70;;;0.70;;
31182;SDS011;17813;0.000;0.000;2023-07-20T12:45:42;0.80;;;0.80;;
31182;SDS011;17813;0.000;0.000;2023-07-20T12:48:09;0.70;;;0.70;;
31182;SDS011;17813;0.000;0.000;2023-07-20T12:50:36;1.08;;;0.70;;
31182;SDS011;17813;0.000;0.000;2023-07-20T12:53:03;0.70;;;0.70;;
31182;SDS011;17813;0.000;0.000;2023-07-20T12:55:30;3.00;;;0.90;;
31182;SDS011;17813;0.000;0.000;2023-07-20T12:57:57;0.90;;;0.90;;
31182;SDS011;17813;0.000;0.000;2023-07-20T13:00:24;0.77;;;0.77;;
31182;SDS011;17813;0.000;0.000;2023-07-20T13:02:51;1.05;;;1.00;;
31182;SDS011;17813;0.000;0.000;2023-07-20T13:05:18;0.90;;;0.90;;
31182;SDS011;17813;0.000;0.000;2023-07-20T13:07:45;2.25;;;0.95;;
31182;SDS011;17813;0.000;0.000;2023-07-20T13:10:12;0.93;;;0.93;;
31182;SDS011;17813;0.000;0.000;2023-07-20T13:12:39;1.10;;;1.00;;
31182;SDS011;17813;0.000;0.000;2023-07-20T13:15:07;1.00;;;0.90;;
31182;SDS011;17813;0.000;0.000;2023-07-20T13:17:35;0.90;;;0.90;;
31182;SDS011;17813;0.000;0.000;2023-07-20T13:20:03;1.25;;;1.10;;
31182;SDS011;17813;0.000;0.000;2023-07-20T13:22:32;2.20;;;0.95;;
31182;SDS011;17813;0.000;0.000;2023-07-20T13:24:59;1.25;;;1.15;;
31182;SDS011;17813;0.000;0.000;2023-07-20T13:27:27;0.88;;;0.88;;
31182;SDS011;17813;0.000;0.000;2023-07-20T13:29:56;0.90;;;0.90;;
31182;SDS011;17813;0.000;0.000;2023-07-20T13:32:24;1.15;;;1.00;;
31182;SDS011;17813;0.000;0.000;2023-07-20T13:38:39;2.00;;;1.00;;
31182;SDS011;17813;0.000;0.000;2023-07-20T13:41:06;0.90;;;0.90;;
31182;SDS011;17813;0.000;0.000;2023-07-20T13:47:21;0.85;;;0.85;;
31182;SDS011;17813;0.000;0.000;2023-07-20T13:53:36;0.80;;;0.80;;
31182;SDS011;17813;0.000;0.000;2023-07-20T13:56:04;1.08;;;1.00;;
31182;SDS011;17813;0.000;0.000;2023-07-20T13:58:35;0.90;;;0.90;;
31182;SDS011;17813;0.000;0.000;2023-07-20T14:01:11;0.95;;;0.90;;
31182;SDS011;17813;0.000;0.000;2023-07-20T14:03:39;0.80;;;0.60;;
31182;SDS011;17813;0.000;0.000;2023-07-20T14:09:56;0.90;;;0.90;;
31182;SDS011;17813;0.000;0.000;2023-07-20T14:12:26;0.75;;;0.75;;
31182;SDS011;17813;0.000;0.000;2023-07-20T14:22:29;1.17;;;1.08;;
31182;SDS011;17813;0.000;0.000;2023-07-20T14:25:05;1.77;;;0.70;;
31182;SDS011;17813;0.000;0.000;2023-07-20T14:27:43;0.85;;;0.85;;
31182;SDS011;17813;0.000;0.000;2023-07-20T14:30:11;0.93;;;0.93;;
31182;SDS011;17813;0.000;0.000;2023-07-20T14:36:27;0.77;;;0.77;;
31182;SDS011;17813;0.000;0.000;2023-07-20T14:38:54;1.90;;;0.90;;
31182;SDS011;17813;0.000;0.000;2023-07-20T14:41:23;0.75;;;0.75;;
31182;SDS011;17813;0.000;0.000;2023-07-20T14:43:55;0.70;;;0.70;;
31182;SDS011;17813;0.000;0.000;2023-07-20T14:46:26;0.70;;;0.70;;
31182;SDS011;17813;0.000;0.000;2023-07-20T14:48:55;0.88;;;0.88;;
31182;SDS011;17813;0.000;0.000;2023-07-20T14:55:14;0.90;;;0.90;;
31182;SDS011;17813;0.000;0.000;2023-07-20T14:57:42;0.80;;;0.80;;
31182;SDS011;17813;0.000;0.000;2023-07-20T15:00:10;0.73;;;0.73;;
31182;SDS011;17813;0.000;0.000;2023-07-20T15:02:43;1.00;;;0.90;;
31182;SDS011;17813;0.000;0.000;2023-07-20T15:05:10;0.50;;;0.50;;
31182;SDS011;17813;0.000;0.000;2023-07-20T15:07:37;0.70;;;0.70;;
31182;SDS011;17813;0.000;0.000;2023-07-20T15:10:18;0.60;;;0.60;;
31182;SDS011;17813;0.000;0.000;2023-07-20T15:12:50;1.08;;;0.98;;
31182;SDS011;17813;0.000;0.000;2023-07-20T15:15:20;0.70;;;0.70;;
31182;SDS011;17813;0.000;0.000;2023-07-20T15:17:48;0.70;;;0.70;;
31182;SDS011;17813;0.000;0.000;2023-07-20T15:20:16;0.80;;;0.80;;
31182;SDS011;17813;0.000;0.000;2023-07-20T15:22:43;0.63;;;0.63;;
31182;SDS011;17813;0.000;0.000;2023-07-20T15:25:10;1.10;;;1.00;;
31182;SDS011;17813;0.000;0.000;2023-07-20T15:27:41;0.90;;;0.90;;
31182;SDS011;17813;0.000;0.000;2023-07-20T15:30:09;1.00;;;1.00;;
31182;SDS011;17813;0.000;0.000;2023-07-20T15:32:37;0.65;;;0.65;;
31182;SDS011;17813;0.000;0.000;2023-07-20T15:35:06;0.95;;;0.70;;
31182;SDS011;17813;0.000;0.000;2023-07-20T15:37:35;0.70;;;0.70;;
31182;SDS011;17813;0.000;0.000;2023-07-20T15:40:02;0.60;;;0.60;;
31182;SDS011;17813;0.000;0.000;2023-07-20T15:42:31;1.15;;;0.80;;
31182;SDS011;17813;0.000;0.000;2023-07-20T15:44:58;0.88;;;0.88;;
31182;SDS011;17813;0.000;0.000;2023-07-20T15:47:28;1.02;;;0.80;;
31182;SDS011;17813;0.000;0.000;2023-07-20T15:50:06;0.88;;;0.77;;
31182;SDS011;17813;0.000;0.000;2023-07-20T15:52:36;1.50;;;1.10;;
31182;SDS011;17813;0.000;0.000;2023-07-20T15:55:05;0.88;;;0.88;;
31182;SDS011;17813;0.000;0.000;2023-07-20T15:57:52;0.90;;;0.90;;
31182;SDS011;17813;0.000;0.000;2023-07-20T16:00:23;0.70;;;0.70;;
31182;SDS011;17813;0.000;0.000;2023-07-20T16:02:51;0.70;;;0.70;;
31182;SDS011;17813;0.000;0.000;2023-07-20T16:05:19;0.73;;;0.73;;
31182;SDS011;17813;0.000;0.000;2023-07-20T16:07:51;1.35;;;1.20;;
31182;SDS011;17813;0.000;0.000;2023-07-20T16:10:18;1.30;;;1.20;;
31182;SDS011;17813;0.000;0.000;2023-07-20T16:12:51;0.70;;;0.70;;
31182;SDS011;17813;0.000;0.000;2023-07-20T16:15:18;1.33;;;1.23;;
31182;SDS011;17813;0.000;0.000;2023-07-20T16:17:47;1.10;;;1.10;;
31182;SDS011;17813;0.000;0.000;2023-07-20T16:20:27;1.35;;;1.35;;